createdAt,value
2018-11-06T00:01:24.702Z,30.20
2018-11-06T00:04:05.657Z,29.90
2018-11-06T00:06:34.274Z,29.70
2018-11-06T00:09:02.711Z,29.20
2018-11-06T00:11:31.157Z,28.90
2018-11-06T00:13:59.613Z,28.70
2018-11-06T00:16:28.103Z,28.30
2018-11-06T00:18:56.507Z,28.10
2018-11-06T00:21:24.969Z,28.50
2018-11-06T00:23:53.429Z,29.40
2018-11-06T00:26:21.851Z,30.20
2018-11-06T00:28:50.304Z,30.00
2018-11-06T00:31:18.749Z,29.10
2018-11-06T00:33:47.183Z,29.30
2018-11-06T00:36:15.643Z,29.50
2018-11-06T00:38:44.070Z,29.70
2018-11-06T00:41:12.526Z,29.90
2018-11-06T00:43:40.948Z,30.00
2018-11-06T00:46:09.459Z,30.00
2018-11-06T00:48:37.851Z,29.80
2018-11-06T00:51:06.637Z,30.20
2018-11-06T00:53:35.061Z,30.90
2018-11-06T00:56:03.527Z,31.50
2018-11-06T00:58:31.961Z,32.50
2018-11-06T01:01:00.415Z,31.80
2018-11-06T01:03:46.639Z,31.50
2018-11-06T01:06:15.070Z,31.10
2018-11-06T01:08:43.541Z,30.20
2018-11-06T01:11:11.963Z,30.10
2018-11-06T01:13:40.428Z,30.70
2018-11-06T01:16:08.854Z,31.10
2018-11-06T01:18:37.278Z,31.10
2018-11-06T01:21:06.102Z,31.10
2018-11-06T01:23:34.506Z,31.30
2018-11-06T01:26:02.984Z,31.50
2018-11-06T01:28:31.407Z,31.70
2018-11-06T01:30:59.903Z,31.40
2018-11-06T01:33:28.334Z,31.30
2018-11-06T01:35:56.758Z,30.30
2018-11-06T01:38:25.186Z,30.00
2018-11-06T01:40:53.897Z,30.60
2018-11-06T01:43:22.328Z,31.10
2018-11-06T01:45:50.788Z,31.10
2018-11-06T01:48:19.214Z,31.00
2018-11-06T01:50:47.703Z,30.60
2018-11-06T01:53:16.107Z,30.00
2018-11-06T01:55:44.566Z,29.50
2018-11-06T01:58:13.005Z,29.20
2018-11-06T02:00:41.490Z,28.40
2018-11-06T02:03:09.887Z,27.60
2018-11-06T02:05:38.373Z,28.00
2018-11-06T02:08:06.806Z,29.50
2018-11-06T02:10:35.260Z,31.10
2018-11-06T02:13:03.703Z,32.50
2018-11-06T02:15:32.130Z,34.30
2018-11-06T02:18:00.593Z,35.30
2018-11-06T02:20:29.045Z,35.60
2018-11-06T02:22:57.514Z,35.60
2018-11-06T02:25:25.948Z,35.70
2018-11-06T02:27:54.401Z,35.80
2018-11-06T02:30:22.831Z,35.90
2018-11-06T02:32:51.331Z,35.80
2018-11-06T02:35:19.726Z,35.60
2018-11-06T02:37:48.192Z,35.70
2018-11-06T02:40:17.101Z,35.60
2018-11-06T02:42:45.560Z,35.50
2018-11-06T02:45:14.383Z,35.10
2018-11-06T02:47:43.406Z,35.60
2018-11-06T02:50:12.670Z,34.70
2018-11-06T02:52:41.596Z,34.70
2018-11-06T02:55:10.449Z,34.50
2018-11-06T02:57:39.173Z,34.40
2018-11-06T03:00:08.689Z,34.20
2018-11-06T03:02:37.162Z,34.10
2018-11-06T03:05:05.872Z,33.90
2018-11-06T03:07:34.337Z,34.40
2018-11-06T03:10:02.889Z,34.10
2018-11-06T03:12:31.326Z,34.70
2018-11-06T03:14:59.778Z,35.60
2018-11-06T03:17:28.192Z,36.70
2018-11-06T03:19:56.618Z,37.60
2018-11-06T03:22:25.065Z,38.30
2018-11-06T03:24:53.519Z,38.30
2018-11-06T03:27:21.937Z,38.40
2018-11-06T03:29:50.361Z,38.90
2018-11-06T03:32:18.814Z,39.10
2018-11-06T03:34:47.270Z,39.30
2018-11-06T03:37:15.682Z,39.70
2018-11-06T03:39:44.110Z,40.80
2018-11-06T03:42:12.564Z,41.40
2018-11-06T03:44:40.981Z,41.40
2018-11-06T03:47:09.476Z,41.20
2018-11-06T03:49:37.863Z,41.40
2018-11-06T03:52:06.579Z,42.00
2018-11-06T03:54:34.993Z,42.50
2018-11-06T03:57:03.451Z,42.80
2018-11-06T03:59:31.905Z,43.00
2018-11-06T04:02:00.366Z,43.10
2018-11-06T04:04:28.760Z,42.90
2018-11-06T04:06:57.218Z,43.20
2018-11-06T04:09:25.660Z,42.40
2018-11-06T04:11:54.081Z,42.40
2018-11-06T04:14:22.537Z,42.10
2018-11-06T04:16:50.945Z,42.00
2018-11-06T04:19:19.391Z,42.00
2018-11-06T04:21:47.831Z,42.10
2018-11-06T04:24:16.232Z,41.70
2018-11-06T04:26:44.643Z,41.10
2018-11-06T04:29:13.086Z,40.60
2018-11-06T04:31:41.558Z,40.10
2018-11-06T04:34:10.358Z,39.60
2018-11-06T04:36:38.805Z,39.40
2018-11-06T04:39:08.170Z,39.30
2018-11-06T04:41:36.605Z,39.40
2018-11-06T04:44:05.376Z,39.10
2018-11-06T04:46:33.824Z,38.70
2018-11-06T04:49:02.224Z,38.60
2018-11-06T04:51:30.665Z,38.90
2018-11-06T04:54:00.155Z,39.00
2018-11-06T04:56:29.423Z,39.00
2018-11-06T04:58:57.938Z,39.30
2018-11-06T05:01:26.732Z,39.20
2018-11-06T05:03:55.141Z,38.90
2018-11-06T05:06:23.553Z,38.70
2018-11-06T05:08:52.031Z,38.30
2018-11-06T05:11:20.401Z,38.20
2018-11-06T05:13:48.847Z,38.10
2018-11-06T05:16:17.290Z,37.80
2018-11-06T05:18:45.760Z,37.40
2018-11-06T05:21:14.143Z,37.70
2018-11-06T05:23:42.579Z,36.70
2018-11-06T05:26:10.993Z,36.20
2018-11-06T05:28:39.472Z,35.70
2018-11-06T05:31:07.876Z,35.30
2018-11-06T05:33:36.384Z,34.90
2018-11-06T05:36:04.794Z,34.50
2018-11-06T05:38:33.243Z,34.00
2018-11-06T05:41:08.343Z,33.80
2018-11-06T05:43:37.672Z,33.40
2018-11-06T05:46:06.082Z,33.70
2018-11-06T05:48:34.560Z,34.00
2018-11-06T05:51:02.962Z,34.30
2018-11-06T05:53:31.396Z,34.40
2018-11-06T05:55:59.844Z,34.10
2018-11-06T05:58:28.250Z,33.70
2018-11-06T06:00:56.658Z,33.30
2018-11-06T06:03:25.107Z,33.40
2018-11-06T06:05:53.525Z,33.50
2018-11-06T06:08:21.981Z,33.20
2018-11-06T06:10:50.415Z,32.80
2018-11-06T06:13:18.819Z,32.30
2018-11-06T06:15:47.263Z,32.50
2018-11-06T06:18:15.676Z,32.60
2018-11-06T06:20:44.154Z,32.70
2018-11-06T06:23:12.562Z,32.70
2018-11-06T06:25:40.970Z,32.70
2018-11-06T06:28:09.387Z,32.50
2018-11-06T06:30:37.863Z,32.20
2018-11-06T06:33:06.234Z,32.30
2018-11-06T06:35:34.674Z,32.20
2018-11-06T06:38:03.091Z,32.20
2018-11-06T06:40:31.561Z,32.20
2018-11-06T06:42:59.937Z,32.40
2018-11-06T06:45:28.378Z,32.70
2018-11-06T06:47:56.790Z,32.40
2018-11-06T06:50:25.278Z,31.90
2018-11-06T06:52:53.646Z,31.80
2018-11-06T06:55:22.085Z,32.00
2018-11-06T06:57:50.508Z,32.00
2018-11-06T07:00:20.302Z,32.10
2018-11-06T07:02:48.715Z,32.20
2018-11-06T07:05:18.484Z,32.20
2018-11-06T07:07:46.935Z,32.30
2018-11-06T07:10:16.779Z,32.20
2018-11-06T07:12:45.718Z,32.40
2018-11-06T07:15:15.318Z,32.60
2018-11-06T07:17:44.449Z,33.10
2018-11-06T07:20:14.288Z,33.50
2018-11-06T07:22:42.700Z,34.20
2018-11-06T07:25:11.908Z,34.80
2018-11-06T07:27:41.276Z,35.40
2018-11-06T07:30:14.573Z,35.70
2018-11-06T07:32:43.456Z,36.00
2018-11-06T07:35:12.765Z,36.20
2018-11-06T07:37:41.619Z,36.90
2018-11-06T07:40:11.673Z,37.40
2018-11-06T07:42:40.270Z,37.70
2018-11-06T07:45:13.235Z,39.20
2018-11-06T07:47:42.000Z,40.70
2018-11-06T07:50:11.268Z,42.00
2018-11-06T07:52:39.982Z,43.10
2018-11-06T07:55:46.711Z,43.50
2018-11-06T07:58:15.076Z,43.80
2018-11-06T08:00:43.513Z,44.10
2018-11-06T08:03:11.973Z,44.30
2018-11-06T08:05:40.381Z,44.60
2018-11-06T08:08:08.798Z,44.70
2018-11-06T08:10:37.229Z,44.80
2018-11-06T08:13:05.898Z,43.20
2018-11-06T08:15:34.340Z,42.00
2018-11-06T08:18:02.789Z,41.40
2018-11-06T08:20:31.180Z,41.50
2018-11-06T08:22:59.562Z,41.90
2018-11-06T08:25:28.134Z,42.40
2018-11-06T08:27:56.532Z,42.80
2018-11-06T08:30:24.960Z,43.10
2018-11-06T08:32:53.545Z,43.30
2018-11-06T08:35:21.811Z,43.50
2018-11-06T08:37:50.259Z,43.80
2018-11-06T08:40:18.859Z,44.10
2018-11-06T08:42:47.413Z,44.70
2018-11-06T08:45:16.535Z,44.80
2018-11-06T08:47:45.397Z,45.00
2018-11-06T08:50:15.134Z,44.90
2018-11-06T08:52:43.832Z,44.60
2018-11-06T08:55:13.324Z,44.20
2018-11-06T08:57:42.428Z,43.70
2018-11-06T09:00:12.651Z,43.20
2018-11-06T09:02:41.116Z,42.70
2018-11-06T09:05:11.144Z,42.40
2018-11-06T09:07:39.555Z,42.30
2018-11-06T09:10:08.445Z,42.30
2018-11-06T09:12:37.163Z,42.30
2018-11-06T09:15:05.762Z,42.50
2018-11-06T09:17:34.142Z,42.50
2018-11-06T09:20:02.554Z,42.30
2018-11-06T09:22:30.996Z,42.00
2018-11-06T09:24:59.470Z,42.20
2018-11-06T09:27:27.943Z,42.40
2018-11-06T09:29:56.382Z,42.60
2018-11-06T09:32:24.782Z,42.80
2018-11-06T09:34:53.184Z,42.70
2018-11-06T09:37:21.671Z,42.60
2018-11-06T09:39:50.034Z,42.90
2018-11-06T09:42:18.477Z,43.10
2018-11-06T09:44:46.886Z,42.80
2018-11-06T09:47:15.334Z,43.50
2018-11-06T09:49:43.737Z,43.80
2018-11-06T09:52:12.177Z,45.10
2018-11-06T09:54:40.663Z,46.40
2018-11-06T09:57:09.073Z,47.00
2018-11-06T09:59:37.484Z,47.20
2018-11-06T10:02:05.953Z,47.00
2018-11-06T10:04:34.366Z,47.10
2018-11-06T10:07:03.020Z,47.00
2018-11-06T10:09:31.222Z,47.10
2018-11-06T10:11:59.667Z,47.00
2018-11-06T10:14:28.078Z,47.10
2018-11-06T10:16:56.527Z,46.30
2018-11-06T10:19:24.937Z,45.40
2018-11-06T10:21:53.415Z,44.80
2018-11-06T10:24:21.790Z,44.40
2018-11-06T10:26:50.272Z,44.70
2018-11-06T10:29:18.679Z,45.30
2018-11-06T10:31:47.090Z,45.40
2018-11-06T10:34:15.498Z,45.50
2018-11-06T10:36:43.945Z,45.50
2018-11-06T10:39:13.816Z,45.60
2018-11-06T10:41:42.322Z,45.80
2018-11-06T10:44:10.695Z,46.10
2018-11-06T10:46:39.299Z,46.90
2018-11-06T10:49:08.713Z,46.00
2018-11-06T10:51:37.171Z,45.80
2018-11-06T10:54:05.671Z,45.70
2018-11-06T10:56:34.151Z,45.70
2018-11-06T10:59:02.558Z,45.50
2018-11-06T11:01:48.388Z,45.70
2018-11-06T11:04:21.788Z,45.80
2018-11-06T11:06:50.334Z,45.90
2018-11-06T11:09:18.738Z,46.00
2018-11-06T11:11:47.145Z,46.20
2018-11-06T11:14:15.558Z,46.30
2018-11-06T11:16:43.999Z,46.70
2018-11-06T11:19:12.409Z,47.10
2018-11-06T11:21:40.887Z,47.30
2018-11-06T11:24:09.260Z,47.50
2018-11-06T11:26:37.694Z,47.60
2018-11-06T11:29:06.102Z,47.90
2018-11-06T11:31:34.548Z,48.20
2018-11-06T11:34:02.957Z,48.10
2018-11-06T11:36:31.369Z,48.20
2018-11-06T11:38:59.809Z,48.30
2018-11-06T11:41:28.240Z,48.20
2018-11-06T11:43:56.678Z,48.20
2018-11-06T11:46:25.114Z,48.30
2018-11-06T11:48:53.557Z,48.10
2018-11-06T11:51:21.961Z,48.00
2018-11-06T11:53:50.393Z,47.70
2018-11-06T11:56:18.847Z,47.70
2018-11-06T11:58:47.320Z,46.70
2018-11-06T12:01:15.697Z,46.60
2018-11-06T12:03:44.176Z,46.00
2018-11-06T12:06:12.586Z,46.10
2018-11-06T12:08:41.031Z,46.60
2018-11-06T12:11:09.442Z,46.80
2018-11-06T12:13:37.880Z,47.00
2018-11-06T12:16:07.623Z,47.50
2018-11-06T12:18:36.361Z,48.00
2018-11-06T12:21:04.773Z,48.50
2018-11-06T12:23:33.212Z,48.60
2018-11-06T12:26:01.664Z,48.90
2018-11-06T12:28:30.106Z,49.20
2018-11-06T12:30:58.560Z,49.40
2018-11-06T12:33:26.972Z,49.30
2018-11-06T12:35:55.388Z,49.60
2018-11-06T12:38:23.837Z,49.20
2018-11-06T12:40:52.290Z,48.70
2018-11-06T12:43:20.698Z,48.20
2018-11-06T12:45:49.099Z,48.10
2018-11-06T12:48:17.538Z,47.90
2018-11-06T12:50:45.950Z,47.70
2018-11-06T12:53:14.394Z,47.60
2018-11-06T12:55:42.802Z,47.60
2018-11-06T12:58:11.256Z,47.60
2018-11-06T13:00:39.660Z,47.60
2018-11-06T13:03:08.113Z,47.60
2018-11-06T13:05:36.556Z,47.70
2018-11-06T13:08:04.966Z,47.80
2018-11-06T13:10:33.377Z,47.90
2018-11-06T13:13:01.809Z,48.10
2018-11-06T13:15:30.314Z,48.30
2018-11-06T13:17:58.730Z,48.40
2018-11-06T13:20:27.102Z,48.50
2018-11-06T13:22:55.537Z,48.40
2018-11-06T13:25:23.963Z,48.30
2018-11-06T13:27:52.396Z,47.90
2018-11-06T13:30:20.800Z,47.60
2018-11-06T13:32:49.621Z,48.10
2018-11-06T13:35:17.998Z,47.30
2018-11-06T13:37:46.485Z,47.20
2018-11-06T13:40:15.975Z,47.20
2018-11-06T13:42:44.718Z,47.40
2018-11-06T13:45:15.054Z,47.60
2018-11-06T13:47:43.447Z,48.20
2018-11-06T13:50:11.856Z,48.50
2018-11-06T13:52:40.303Z,49.10
2018-11-06T13:55:09.994Z,49.30
2018-11-06T13:57:38.434Z,49.80
2018-11-06T14:00:10.868Z,50.10
2018-11-06T14:02:39.315Z,50.50
2018-11-06T14:05:07.711Z,50.90
2018-11-06T14:07:36.353Z,50.90
2018-11-06T14:10:04.908Z,51.10
2018-11-06T14:12:33.386Z,51.20
2018-11-06T14:15:01.930Z,51.30
2018-11-06T14:17:30.371Z,51.60
2018-11-06T14:19:58.781Z,51.90
2018-11-06T14:22:27.305Z,52.10
2018-11-06T14:24:55.714Z,52.10
2018-11-06T14:27:24.181Z,52.20
2018-11-06T14:29:52.573Z,52.30
2018-11-06T14:32:21.130Z,52.10
2018-11-06T14:34:49.686Z,52.10
2018-11-06T14:37:18.125Z,52.00
2018-11-06T14:39:46.533Z,52.00
2018-11-06T14:42:14.981Z,51.80
2018-11-06T14:44:43.380Z,51.40
2018-11-06T14:47:11.823Z,50.20
2018-11-06T14:49:40.272Z,50.30
2018-11-06T14:52:08.783Z,50.50
2018-11-06T14:54:38.085Z,51.40
2018-11-06T14:57:06.495Z,51.70
2018-11-06T14:59:34.937Z,51.90
2018-11-06T15:02:03.380Z,52.00
2018-11-06T15:04:31.787Z,51.50
2018-11-06T15:07:00.192Z,51.60
2018-11-06T15:09:28.639Z,51.40
2018-11-06T15:11:57.042Z,51.40
2018-11-06T15:14:25.476Z,51.20
2018-11-06T15:16:53.884Z,51.10
2018-11-06T15:19:22.316Z,51.20
2018-11-06T15:21:50.729Z,51.10
2018-11-06T15:24:19.206Z,51.10
2018-11-06T15:26:47.587Z,51.20
2018-11-06T15:29:16.024Z,51.10
2018-11-06T15:31:44.443Z,51.00
2018-11-06T15:34:12.885Z,51.00
2018-11-06T15:36:41.306Z,51.00
2018-11-06T15:39:10.031Z,50.70
2018-11-06T15:41:39.609Z,51.00
2018-11-06T15:44:07.945Z,50.80
2018-11-06T15:46:36.386Z,50.90
2018-11-06T15:49:04.868Z,50.90
2018-11-06T15:51:33.263Z,51.00
2018-11-06T15:54:01.747Z,51.60
2018-11-06T15:56:30.159Z,51.30
2018-11-06T15:58:58.635Z,51.50
2018-11-06T16:01:27.779Z,51.50
2018-11-06T16:03:56.382Z,51.70
2018-11-06T16:06:25.078Z,51.80
2018-11-06T16:08:53.515Z,51.90
2018-11-06T16:11:22.101Z,51.60
2018-11-06T16:13:50.579Z,51.90
2018-11-06T16:16:18.976Z,51.90
2018-11-06T16:18:47.590Z,52.80
2018-11-06T16:21:16.005Z,52.40
2018-11-06T16:23:44.445Z,52.50
2018-11-06T16:26:12.849Z,52.70
2018-11-06T16:28:41.298Z,52.70
2018-11-06T16:31:09.739Z,53.10
2018-11-06T16:33:38.152Z,53.20
2018-11-06T16:36:06.556Z,52.90
2018-11-06T16:38:35.003Z,52.50
2018-11-06T16:41:03.413Z,52.50
2018-11-06T16:43:31.849Z,52.20
2018-11-06T16:46:00.265Z,52.60
2018-11-06T16:48:28.760Z,52.90
2018-11-06T16:50:57.114Z,53.00
2018-11-06T16:53:25.555Z,53.20
2018-11-06T16:55:53.998Z,52.80
2018-11-06T16:58:22.422Z,53.10
2018-11-06T17:00:51.036Z,53.40
2018-11-06T17:03:19.295Z,54.30
2018-11-06T17:05:47.739Z,54.50
2018-11-06T17:08:16.184Z,54.70
2018-11-06T17:10:44.597Z,55.30
2018-11-06T17:13:13.008Z,55.30
2018-11-06T17:15:41.470Z,55.10
2018-11-06T17:18:09.886Z,55.70
2018-11-06T17:20:38.322Z,55.40
2018-11-06T17:23:06.920Z,55.30
2018-11-06T17:25:35.476Z,55.00
2018-11-06T17:28:03.776Z,55.00
2018-11-06T17:30:32.228Z,54.60
2018-11-06T17:33:00.642Z,54.40
2018-11-06T17:35:29.094Z,54.60
2018-11-06T17:37:57.503Z,54.40
2018-11-06T17:40:25.972Z,54.30
2018-11-06T17:42:54.348Z,54.60
2018-11-06T17:45:24.145Z,54.00
2018-11-06T17:47:52.580Z,53.80
2018-11-06T17:50:21.036Z,53.20
2018-11-06T17:52:49.452Z,52.90
2018-11-06T17:55:19.339Z,53.00
2018-11-06T17:57:47.614Z,52.50
2018-11-06T18:00:20.769Z,52.30
2018-11-06T18:02:49.250Z,51.00
2018-11-06T18:05:18.973Z,50.50
2018-11-06T18:07:47.418Z,49.50
2018-11-06T18:10:17.285Z,48.80
2018-11-06T18:12:45.800Z,47.60
2018-11-06T18:15:14.271Z,46.80
2018-11-06T18:17:42.996Z,46.10
2018-11-06T18:20:12.442Z,45.30
2018-11-06T18:22:41.564Z,44.40
2018-11-06T18:25:11.085Z,43.70
2018-11-06T18:27:39.654Z,42.80
2018-11-06T18:30:12.375Z,42.30
2018-11-06T18:32:40.816Z,42.00
2018-11-06T18:35:10.459Z,42.30
2018-11-06T18:37:38.866Z,42.80
2018-11-06T18:40:08.407Z,44.10
2018-11-06T18:42:36.994Z,45.40
2018-11-06T18:45:05.660Z,46.30
2018-11-06T18:47:34.377Z,46.80
2018-11-06T18:50:02.851Z,47.30
2018-11-06T18:52:31.258Z,47.30
2018-11-06T18:54:59.726Z,47.50
2018-11-06T18:57:28.101Z,47.60
2018-11-06T18:59:56.541Z,47.70
2018-11-06T19:02:25.004Z,47.50
2018-11-06T19:04:53.506Z,47.60
2018-11-06T19:07:21.885Z,48.00
2018-11-06T19:09:50.338Z,48.30
2018-11-06T19:12:18.783Z,49.40
2018-11-06T19:14:47.234Z,50.40
2018-11-06T19:17:15.642Z,51.30
2018-11-06T19:19:44.012Z,52.90
2018-11-06T19:22:12.495Z,53.70
2018-11-06T19:24:40.907Z,54.10
2018-11-06T19:27:09.374Z,54.10
2018-11-06T19:29:37.746Z,54.20
2018-11-06T19:32:06.519Z,54.70
2018-11-06T19:34:34.942Z,53.60
2018-11-06T19:37:03.442Z,53.30
2018-11-06T19:39:31.821Z,53.40
2018-11-06T19:42:00.547Z,52.40
2018-11-06T19:44:28.938Z,51.30
2018-11-06T19:46:57.435Z,49.70
2018-11-06T19:49:25.809Z,48.70
2018-11-06T19:51:54.261Z,48.30
2018-11-06T19:54:22.696Z,47.90
2018-11-06T19:56:51.207Z,48.10
2018-11-06T19:59:19.593Z,48.20
2018-11-06T20:01:48.042Z,48.00
2018-11-06T20:04:16.424Z,48.20
2018-11-06T20:06:44.894Z,48.30
2018-11-06T20:09:13.301Z,48.60
2018-11-06T20:11:41.831Z,48.60
2018-11-06T20:14:10.411Z,48.60
2018-11-06T20:16:39.154Z,48.90
2018-11-06T20:19:07.575Z,49.30
2018-11-06T20:21:36.150Z,49.80
2018-11-06T20:24:04.546Z,50.50
2018-11-06T20:26:32.992Z,51.70
2018-11-06T20:29:01.406Z,51.50
2018-11-06T20:31:29.868Z,52.00
2018-11-06T20:33:58.307Z,52.40
2018-11-06T20:36:26.745Z,52.80
2018-11-06T20:38:55.154Z,53.10
2018-11-06T20:41:23.660Z,53.40
2018-11-06T20:43:52.021Z,53.40
2018-11-06T20:46:20.558Z,53.70
2018-11-06T20:48:48.958Z,53.80
2018-11-06T20:51:17.400Z,53.60
2018-11-06T20:53:45.806Z,53.10
2018-11-06T20:56:14.316Z,52.60
2018-11-06T20:58:42.695Z,52.30
2018-11-06T21:01:11.210Z,52.30
2018-11-06T21:03:39.684Z,51.90
2018-11-06T21:06:08.148Z,52.00
2018-11-06T21:08:36.582Z,52.00
2018-11-06T21:11:04.994Z,51.70
2018-11-06T21:13:33.580Z,51.80
2018-11-06T21:16:01.942Z,51.30
2018-11-06T21:18:30.540Z,50.90
2018-11-06T21:20:58.863Z,50.80
2018-11-06T21:23:27.331Z,50.80
2018-11-06T21:25:55.917Z,50.70
2018-11-06T21:28:24.197Z,50.70
2018-11-06T21:30:52.639Z,50.80
2018-11-06T21:33:21.095Z,50.80
2018-11-06T21:35:49.475Z,50.90
2018-11-06T21:38:17.976Z,51.30
2018-11-06T21:40:46.347Z,52.20
2018-11-06T21:43:14.784Z,52.50
2018-11-06T21:45:43.209Z,52.70
2018-11-06T21:48:11.697Z,52.30
2018-11-06T21:50:40.064Z,52.20
2018-11-06T21:53:08.503Z,52.70
2018-11-06T21:55:36.945Z,52.10
2018-11-06T21:58:05.359Z,51.10
2018-11-06T22:00:33.786Z,50.60
2018-11-06T22:03:02.218Z,49.70
2018-11-06T22:05:30.627Z,48.20
2018-11-06T22:07:59.180Z,44.90
2018-11-06T22:10:27.586Z,42.80
2018-11-06T22:12:56.037Z,41.60
2018-11-06T22:15:24.432Z,41.00
2018-11-06T22:17:52.876Z,40.70
2018-11-06T22:20:21.293Z,40.60
2018-11-06T22:22:50.054Z,40.60
2018-11-06T22:25:18.498Z,40.70
2018-11-06T22:27:46.943Z,41.00
2018-11-06T22:30:16.284Z,41.00
2018-11-06T22:32:45.416Z,41.30
2018-11-06T22:35:15.100Z,41.60
2018-11-06T22:37:43.715Z,42.00
2018-11-06T22:40:13.524Z,42.30
2018-11-06T22:42:41.926Z,43.00
2018-11-06T22:45:11.984Z,43.50
2018-11-06T22:47:40.607Z,44.30
2018-11-06T22:50:10.478Z,45.20
2018-11-06T22:52:38.887Z,46.20
2018-11-06T22:55:07.689Z,47.20
2018-11-06T22:57:36.108Z,47.70
2018-11-06T23:00:04.782Z,48.00
2018-11-06T23:02:33.190Z,48.40
2018-11-06T23:05:01.636Z,48.60
2018-11-06T23:07:47.618Z,49.00
2018-11-06T23:10:16.035Z,49.20
2018-11-06T23:12:44.458Z,49.50
2018-11-06T23:15:12.926Z,50.60
2018-11-06T23:17:41.298Z,50.00
2018-11-06T23:20:10.143Z,50.60
2018-11-06T23:22:38.517Z,50.50
2018-11-06T23:25:07.021Z,50.60
2018-11-06T23:27:35.405Z,51.00
2018-11-06T23:30:03.866Z,51.30
2018-11-06T23:32:32.313Z,51.90
2018-11-06T23:35:00.751Z,52.70
2018-11-06T23:37:29.153Z,52.90
2018-11-06T23:39:57.594Z,52.30
2018-11-06T23:42:26.110Z,51.60
2018-11-06T23:44:54.582Z,51.30
2018-11-06T23:47:22.963Z,51.30
2018-11-06T23:49:51.435Z,51.30
2018-11-06T23:52:19.813Z,51.50
2018-11-06T23:54:48.294Z,51.30
2018-11-06T23:57:16.719Z,51.50
2018-11-06T23:59:45.226Z,51.70
